Airfield :
LOGIN :

Register | Disclaimer

   EN    FR    IT 

 










Legend :    VFR   Marginal VFR   IFR   Intensive IFR   Very Intensive IFR
Visi :
Ceiling :
>= 8 km
>= 3000ft
5 to 8 km
1000 to 3000 ft
1500m to 5 km
500 to 1000 ft
800 to 1500m
200 to 500 ft
< 800m
< 200 ft
Symbols :   Thunderstorms  Fog  Heavy snow  Heavy precipitations  Wind > 20 kt
SIGMETs :     Misc.  Thunderstorms  Icing  Turbulence  Mountain Waves  Volcanic Ashes






- Airport Elevation : 41 ft


LIRE - Pratica di Mare Air Base Pomezia

CURRENT METAR :
  • 070955Z 16017KT 9999 SCT020 22/15 Q1010 RMK SCT VIS MIN 9999 WIND THR13 17016KT WIND THR31 19015KT BLU

EXPIRED METARs :
  • 070855Z 16015KT 9999 SCT020 22/16 Q1010 RMK BKN SCT200 VIS MIN 9999 WIND THR13 17013KT WIND THR31 16014KT BLU
  • 070755Z 17013KT 9999 SCT020 22/16 Q1010 RMK BKN SCT200 VIS MIN 9999 WIND THR13 18013KT WIND THR31 17011KT BLU

TAF TAF LIRE
Valid from the 07 at 09:00 until the 07 at 18:00 UTC


070800Z 0709/0718 18015KT 9999 SCT020
TEMPO 0712/0717 FEW020TCU



MET'MAP, your aeronautical weather chart ! - Copyright ORBIFLY December 2007 - Disclaimer

ORBIFLY MET'MAP TEAM :

Programming & Development : Alexandra Zaïnal
Concept & original design : Baudouin d'Aumeries
Assistance for programming : Marc-Olivier Méhu
Technical & hardware support : Manuel Goepfert

Contact : metmap@orbifly.com




SOURCES & CREDITS :

   NOAA